Time;durP1;ratioP1;P1;durP2;ratioP2;P2;SDS_P1;SDS_P2;PMS_P1;PMS_P2;Temp;Humidity;BMP_temperature;BMP_pressure;BME280_temperature;BME280_humidity;BME280_pressure;Samples;Min_cycle;Max_cycle;Signal;HPM_P1;HPM_P2
2022/03/28 00:02:51;;;;;;;;;;;6.30;35.30;;;;;;5201247;22;19921;-82
2022/03/28 00:05:17;;;;;;;;;;;6.40;34.70;;;;;;5039121;28;19920;-80
2022/03/28 00:07:43;;;;;;;;;;;6.40;34.80;;;;;;5039999;28;19917;-80
2022/03/28 00:10:09;;;;;;;;;;;6.40;34.80;;;;;;5039896;28;19976;-80
2022/03/28 00:12:35;;;;;;;;;;;6.30;35.70;;;;;;5022869;28;19925;-80
2022/03/28 00:15:01;;;;;;;;;;;6.10;35.50;;;;;;5040140;28;19894;-81
2022/03/28 00:17:27;;;;;;;;;;;6.20;35.30;;;;;;5040544;28;19916;-80
2022/03/28 00:19:53;;;;;;;;;;;6.00;35.50;;;;;;5022695;28;19914;-81
2022/03/28 00:22:18;;;;;;;;;;;6.10;35.10;;;;;;5024340;28;19909;-83
2022/03/28 00:24:44;;;;;;;;;;;6.10;35.50;;;;;;5040017;28;19894;-81
2022/03/28 00:27:09;;;;;;;;;;;6.00;35.40;;;;;;5040069;28;19894;-81
2022/03/28 00:29:35;;;;;;;;;;;6.00;34.90;;;;;;5040408;28;19976;-80
2022/03/28 00:32:01;;;;;;;;;;;6.10;34.60;;;;;;5023341;28;19897;-81
2022/03/28 00:34:27;;;;;;;;;;;6.10;34.50;;;;;;5040373;28;20028;-80
2022/03/28 00:36:53;;;;;;;;;;;6.00;34.20;;;;;;5040296;28;19894;-78
2022/03/28 00:39:22;;;;;;;;;;;6.00;33.60;;;;;;5041025;28;19894;-81
2022/03/28 00:41:48;;;;;;;;;;;6.20;33.20;;;;;;5040128;28;19914;-80
2022/03/28 00:44:14;;;;;;;;;;;6.10;33.70;;;;;;5020167;28;19928;-78
2022/03/28 00:46:40;;;;;;;;;;;6.00;34.10;;;;;;5036466;28;19917;-79
2022/03/28 00:49:05;;;;;;;;;;;6.00;33.60;;;;;;5022999;28;19900;-79
2022/03/28 00:51:31;;;;;;;;;;;5.90;33.50;;;;;;5023963;28;19902;-76
2022/03/28 00:53:57;;;;;;;;;;;5.90;34.20;;;;;;5040640;28;19957;-78
2022/03/28 00:56:24;;;;;;;;;;;5.80;35.20;;;;;;5040960;28;19900;-78
2022/03/28 00:58:49;;;;;;;;;;;5.70;36.80;;;;;;5040744;28;19894;-78
2022/03/28 01:01:16;;;;;;;;;;;5.60;36.30;;;;;;5023770;28;20788;-78
2022/03/28 01:03:41;;;;;;;;;;;5.50;35.80;;;;;;5040732;28;19921;-79
2022/03/28 01:06:07;;;;;;;;;;;5.50;35.30;;;;;;5040453;28;19905;-80
2022/03/28 01:08:34;;;;;;;;;;;5.60;34.80;;;;;;5019035;28;19917;-79
2022/03/28 01:11:02;;;;;;;;;;;5.60;34.80;;;;;;5040436;28;19908;-78
2022/03/28 02:03:07;;;;;;;;;;;5.30;37.30;;;;;;5668722;23;19921;-80
2022/03/28 02:05:33;;;;;;;;;;;5.30;37.10;;;;;;5059200;28;19913;-79
2022/03/28 02:07:59;;;;;;;;;;;5.40;37.50;;;;;;5041926;28;19897;-81
2022/03/28 02:10:25;;;;;;;;;;;5.20;37.70;;;;;;5057957;28;19893;-80
2022/03/28 02:36:09;;;;;;;;;;;4.70;41.10;;;;;;5241147;22;19922;-82
2022/03/28 02:38:35;;;;;;;;;;;4.70;41.10;;;;;;5035537;28;19900;-81
2022/03/28 02:41:00;;;;;;;;;;;4.70;41.40;;;;;;5037283;28;19925;-81
2022/03/28 02:43:26;;;;;;;;;;;4.50;41.40;;;;;;5037826;28;19894;-80
2022/03/28 02:45:52;;;;;;;;;;;4.50;41.90;;;;;;5036906;28;19968;-80
2022/03/28 02:48:18;;;;;;;;;;;4.50;42.20;;;;;;5038593;28;19909;-82
2022/03/28 02:50:45;;;;;;;;;;;4.40;43.00;;;;;;5023429;28;19893;-81
2022/03/28 02:53:11;;;;;;;;;;;4.30;43.00;;;;;;5040818;28;19906;-81
2022/03/28 02:55:37;;;;;;;;;;;4.30;43.40;;;;;;5042413;28;19960;-80
2022/03/28 02:58:03;;;;;;;;;;;4.20;43.40;;;;;;5026081;28;19957;-79
2022/03/28 03:00:29;;;;;;;;;;;4.00;43.80;;;;;;5043099;28;19894;-77
2022/03/28 03:02:54;;;;;;;;;;;4.10;43.90;;;;;;5026378;28;19985;-79
2022/03/28 03:05:20;;;;;;;;;;;4.00;44.60;;;;;;5026426;28;19900;-78
2022/03/28 03:07:48;;;;;;;;;;;4.00;44.20;;;;;;5026077;28;19894;-78
2022/03/28 03:10:14;;;;;;;;;;;4.00;44.10;;;;;;5042960;28;19900;-78
2022/03/28 03:28:29;;;;;;;;;;;4.00;43.20;;;;;;5475407;23;19912;-80
2022/03/28 03:30:55;;;;;;;;;;;3.80;43.00;;;;;;5040388;28;19901;-81
2022/03/28 03:33:22;;;;;;;;;;;3.90;43.00;;;;;;5052420;28;19893;-81
2022/03/28 03:35:47;;;;;;;;;;;3.90;44.00;;;;;;5061812;28;19921;-81
2022/03/28 03:38:13;;;;;;;;;;;3.80;43.90;;;;;;5044698;28;19901;-80
2022/03/28 03:40:39;;;;;;;;;;;3.80;42.20;;;;;;5044969;28;19909;-80
2022/03/28 03:43:04;;;;;;;;;;;3.90;42.40;;;;;;5061053;28;19893;-81
2022/03/28 03:45:30;;;;;;;;;;;3.80;42.80;;;;;;5062231;28;19901;-78
2022/03/28 03:47:56;;;;;;;;;;;3.90;43.00;;;;;;5061897;28;19916;-81
2022/03/28 03:50:22;;;;;;;;;;;3.80;43.30;;;;;;5061916;28;19893;-82
2022/03/28 03:52:50;;;;;;;;;;;3.80;43.00;;;;;;5044658;28;19901;-80
2022/03/28 03:55:16;;;;;;;;;;;3.80;42.70;;;;;;5044887;28;19893;-81
2022/03/28 03:57:42;;;;;;;;;;;3.80;43.10;;;;;;5062085;28;19893;-76
2022/03/28 04:00:08;;;;;;;;;;;3.80;43.30;;;;;;5061404;28;19915;-77
2022/03/28 04:02:34;;;;;;;;;;;3.80;43.70;;;;;;5045074;28;19900;-77
2022/03/28 04:05:00;;;;;;;;;;;3.70;44.30;;;;;;5061938;28;19893;-78
2022/03/28 04:07:25;;;;;;;;;;;3.60;44.60;;;;;;5044581;28;19909;-75
2022/03/28 04:09:51;;;;;;;;;;;3.60;44.60;;;;;;5044624;28;19965;-78
2022/03/28 04:44:37;;;;;;;;;;;3.60;43.80;;;;;;5629881;23;19932;-83
2022/03/28 04:47:02;;;;;;;;;;;3.70;43.50;;;;;;5019259;28;19901;-82
2022/03/28 04:49:32;;;;;;;;;;;3.80;43.10;;;;;;5003743;28;19894;-80
2022/03/28 04:51:58;;;;;;;;;;;4.00;42.60;;;;;;5004244;28;19948;-80
2022/03/28 04:54:24;;;;;;;;;;;4.10;42.40;;;;;;5021046;28;19894;-81
2022/03/28 04:56:50;;;;;;;;;;;4.20;42.30;;;;;;5020919;28;19898;-81
2022/03/28 04:59:18;;;;;;;;;;;4.20;42.70;;;;;;5004183;28;19936;-83
2022/03/28 05:01:44;;;;;;;;;;;4.30;43.30;;;;;;5004083;28;19914;-78
2022/03/28 05:04:09;;;;;;;;;;;4.40;42.90;;;;;;5004434;28;19901;-79
2022/03/28 05:06:35;;;;;;;;;;;4.60;42.70;;;;;;5020978;28;19917;-78
2022/03/28 05:09:01;;;;;;;;;;;4.50;43.00;;;;;;5003875;28;19900;-78
2022/03/28 05:50:33;;;;;;;;;;;8.50;35.60;;;;;;5486056;23;19949;-83
2022/03/28 05:52:59;;;;;;;;;;;9.00;35.10;;;;;;4986020;28;19918;-87
2022/03/28 05:55:24;;;;;;;;;;;9.50;34.30;;;;;;4985152;28;19913;-89
2022/03/28 05:57:50;;;;;;;;;;;10.00;34.10;;;;;;4968611;28;20343;-89
2022/03/28 06:00:16;;;;;;;;;;;10.20;33.70;;;;;;4967725;28;19909;-86
2022/03/28 06:02:41;;;;;;;;;;;10.60;32.80;;;;;;4985372;28;19918;-87
2022/03/28 06:05:08;;;;;;;;;;;10.80;32.30;;;;;;4968063;28;20004;-88
2022/03/28 06:07:34;;;;;;;;;;;11.00;32.40;;;;;;4968044;28;19992;-89
2022/03/28 06:09:59;;;;;;;;;;;11.20;31.10;;;;;;4985331;28;19995;-89
2022/03/28 06:12:25;;;;;;;;;;;11.60;30.90;;;;;;4985650;28;20588;-89
2022/03/28 06:14:50;;;;;;;;;;;11.90;30.30;;;;;;4969540;28;19910;-89
2022/03/28 06:17:23;;;;;;;;;;;12.30;29.60;;;;;;4968974;28;19957;-88
2022/03/28 06:19:48;;;;;;;;;;;12.60;29.10;;;;;;4969941;28;19912;-87
2022/03/28 06:22:14;;;;;;;;;;;13.10;28.70;;;;;;4985913;28;19910;-87
2022/03/28 06:24:39;;;;;;;;;;;13.40;28.20;;;;;;4969431;28;20012;-86
2022/03/28 06:27:05;;;;;;;;;;;13.90;27.70;;;;;;4989041;28;19910;-85
2022/03/28 06:29:30;;;;;;;;;;;14.30;25.60;;;;;;4989171;28;19906;-86
2022/03/28 06:31:56;;;;;;;;;;;14.80;25.00;;;;;;4971425;28;19987;-85
2022/03/28 06:34:21;;;;;;;;;;;15.20;24.20;;;;;;4987875;28;20359;-85
2022/03/28 06:36:47;;;;;;;;;;;15.60;23.20;;;;;;4971182;28;20413;-85
2022/03/28 06:39:13;;;;;;;;;;;16.20;22.80;;;;;;4988232;28;20004;-84
2022/03/28 06:41:39;;;;;;;;;;;16.70;21.70;;;;;;4970208;28;19910;-84
2022/03/28 06:44:07;;;;;;;;;;;17.40;20.50;;;;;;4987806;28;20406;-83
2022/03/28 06:46:34;;;;;;;;;;;17.90;19.50;;;;;;4988160;28;20261;-84
2022/03/28 06:48:59;;;;;;;;;;;18.20;19.10;;;;;;4970007;28;19953;-84
2022/03/28 06:51:25;;;;;;;;;;;18.80;18.80;;;;;;4987395;28;19964;-83
2022/03/28 06:53:51;;;;;;;;;;;19.30;18.50;;;;;;4987292;28;19917;-84
2022/03/28 06:56:17;;;;;;;;;;;19.90;18.40;;;;;;4969134;28;20393;-83
2022/03/28 06:58:43;;;;;;;;;;;20.40;17.40;;;;;;4987584;28;20004;-83
2022/03/28 07:01:10;;;;;;;;;;;20.60;17.20;;;;;;4987367;28;20004;-83
2022/03/28 07:03:35;;;;;;;;;;;21.00;16.60;;;;;;4986998;28;19906;-83
2022/03/28 07:06:01;;;;;;;;;;;21.30;16.20;;;;;;4986944;28;19917;-84
2022/03/28 07:08:27;;;;;;;;;;;21.60;15.90;;;;;;4987096;28;19906;-82
2022/03/28 07:10:53;;;;;;;;;;;21.90;15.50;;;;;;4987027;28;19906;-83
2022/03/28 07:13:19;;;;;;;;;;;22.00;15.50;;;;;;4987384;28;19932;-82
2022/03/28 07:15:44;;;;;;;;;;;22.20;15.40;;;;;;4969583;28;20275;-81
2022/03/28 07:18:10;;;;;;;;;;;22.30;15.00;;;;;;4986707;28;19918;-82
2022/03/28 07:20:36;;;;;;;;;;;22.40;15.10;;;;;;4986937;28;20406;-83
2022/03/28 07:23:02;;;;;;;;;;;22.40;14.70;;;;;;4986525;28;19909;-80
2022/03/28 07:25:28;;;;;;;;;;;22.60;13.80;;;;;;4968926;28;19910;-81
2022/03/28 07:27:54;;;;;;;;;;;22.40;14.00;;;;;;4986518;28;19933;-81
2022/03/28 07:30:20;;;;;;;;;;;22.50;13.60;;;;;;4986655;28;19917;-81
2022/03/28 07:32:46;;;;;;;;;;;22.30;13.90;;;;;;4985973;28;19918;-82
2022/03/28 07:35:12;;;;;;;;;;;22.80;13.70;;;;;;4987933;28;19921;-81
2022/03/28 07:37:38;;;;;;;;;;;22.90;12.70;;;;;;4972676;28;19964;-82
2022/03/28 07:40:08;;;;;;;;;;;22.70;13.60;;;;;;4972575;28;19948;-84
2022/03/28 07:42:34;;;;;;;;;;;23.00;13.40;;;;;;4989628;28;19906;-81
2022/03/28 07:45:00;;;;;;;;;;;23.60;13.30;;;;;;4989705;28;19956;-80
2022/03/28 07:47:26;;;;;;;;;;;23.70;12.50;;;;;;4989638;28;19949;-81
2022/03/28 07:49:52;;;;;;;;;;;23.60;12.10;;;;;;4989444;28;20115;-80
2022/03/28 07:52:18;;;;;;;;;;;23.70;12.60;;;;;;4989495;28;20299;-80
2022/03/28 07:54:44;;;;;;;;;;;24.40;12.00;;;;;;4989107;28;19910;-81
2022/03/28 07:57:09;;;;;;;;;;;23.70;12.20;;;;;;4972006;28;20315;-80
2022/03/28 07:59:35;;;;;;;;;;;23.60;11.40;;;;;;4971972;28;20448;-81
2022/03/28 08:02:01;;;;;;;;;;;23.60;11.90;;;;;;4971744;28;19905;-81
2022/03/28 08:04:27;;;;;;;;;;;23.50;11.40;;;;;;4971338;28;19917;-80
2022/03/28 08:06:53;;;;;;;;;;;23.90;12.40;;;;;;4970535;28;19922;-80
2022/03/28 08:09:18;;;;;;;;;;;24.70;11.30;;;;;;4967926;28;19953;-80
2022/03/28 08:11:44;;;;;;;;;;;24.70;11.50;;;;;;4970241;28;20041;-80
2022/03/28 08:14:09;;;;;;;;;;;25.00;11.60;;;;;;4970859;28;19925;-80
2022/03/28 08:16:35;;;;;;;;;;;25.10;10.50;;;;;;4969903;28;20021;-81
2022/03/28 08:19:01;;;;;;;;;;;25.10;10.70;;;;;;4970814;28;19922;-80
2022/03/28 08:21:26;;;;;;;;;;;25.00;11.00;;;;;;4987267;28;19921;-80
2022/03/28 08:23:52;;;;;;;;;;;24.90;11.10;;;;;;4968029;28;20014;-79
2022/03/28 08:26:18;;;;;;;;;;;25.20;10.80;;;;;;4970197;28;19928;-79
2022/03/28 08:28:44;;;;;;;;;;;25.50;10.30;;;;;;4987994;28;19921;-80
2022/03/28 08:31:10;;;;;;;;;;;25.30;10.80;;;;;;4988186;28;19921;-80
2022/03/28 08:33:35;;;;;;;;;;;25.20;10.80;;;;;;4970688;28;19928;-79
2022/03/28 08:36:01;;;;;;;;;;;25.30;11.40;;;;;;4968837;28;19914;-79
2022/03/28 08:38:26;;;;;;;;;;;25.10;10.80;;;;;;4969896;28;20017;-79
2022/03/28 08:40:52;;;;;;;;;;;25.00;11.60;;;;;;4987018;28;20468;-80
2022/03/28 08:43:18;;;;;;;;;;;25.10;11.10;;;;;;4987837;28;20437;-79
2022/03/28 08:45:44;;;;;;;;;;;25.20;11.10;;;;;;4987356;28;19913;-80
2022/03/28 08:48:11;;;;;;;;;;;25.30;11.40;;;;;;4987644;28;19984;-81
2022/03/28 08:50:40;;;;;;;;;;;25.40;11.20;;;;;;4987597;28;19949;-79
2022/03/28 08:53:06;;;;;;;;;;;25.10;11.60;;;;;;4986992;28;19920;-81
2022/03/28 08:55:32;;;;;;;;;;;25.70;11.60;;;;;;4969941;28;19918;-81
2022/03/28 08:57:58;;;;;;;;;;;25.70;11.70;;;;;;4987538;28;20004;-80
2022/03/28 09:00:23;;;;;;;;;;;25.50;11.30;;;;;;4986735;28;20449;-80
2022/03/28 09:02:54;;;;;;;;;;;25.70;12.00;;;;;;4987066;28;19957;-80
2022/03/28 09:05:29;;;;;;;;;;;25.80;12.20;;;;;;4969757;28;20375;-81
2022/03/28 09:07:55;;;;;;;;;;;25.80;12.60;;;;;;4986632;28;19952;-80
2022/03/28 09:10:21;;;;;;;;;;;25.70;12.20;;;;;;4984093;28;19917;-80
2022/03/28 09:13:06;;;;;;;;;;;25.60;12.10;;;;;;4965439;28;20009;-80
2022/03/28 09:15:44;;;;;;;;;;;25.70;12.30;;;;;;4968859;28;20008;-80
2022/03/28 09:18:20;;;;;;;;;;;25.60;12.60;;;;;;4986716;28;20015;-81
2022/03/28 09:20:50;;;;;;;;;;;25.50;12.40;;;;;;4986965;28;19922;-80
2022/03/28 09:23:30;;;;;;;;;;;25.40;12.30;;;;;;4968735;28;19921;-80
2022/03/28 09:25:57;;;;;;;;;;;25.50;13.70;;;;;;4967326;28;19914;-80
2022/03/28 09:28:23;;;;;;;;;;;25.40;13.90;;;;;;4970121;28;19917;-82
2022/03/28 09:30:49;;;;;;;;;;;25.70;13.90;;;;;;4988222;28;19917;-82
2022/03/28 09:33:17;;;;;;;;;;;26.10;13.50;;;;;;4988087;28;19906;-82
2022/03/28 09:35:45;;;;;;;;;;;26.00;13.40;;;;;;4988148;28;19929;-83
2022/03/28 09:38:12;;;;;;;;;;;26.20;12.50;;;;;;4987853;28;19913;-82
2022/03/28 09:40:41;;;;;;;;;;;25.50;13.30;;;;;;4990199;28;20370;-82
2022/03/28 09:43:16;;;;;;;;;;;25.50;13.80;;;;;;4988007;28;19917;-82
2022/03/28 09:45:45;;;;;;;;;;;25.60;14.10;;;;;;4987856;28;19913;-81
2022/03/28 09:48:19;;;;;;;;;;;25.60;14.40;;;;;;4987912;28;19914;-81
2022/03/28 09:50:46;;;;;;;;;;;26.00;14.60;;;;;;4986954;28;20160;-81
2022/03/28 09:53:22;;;;;;;;;;;26.00;13.90;;;;;;4987209;28;20302;-82
2022/03/28 09:56:00;;;;;;;;;;;25.30;13.30;;;;;;4987735;28;19921;-82
2022/03/28 09:58:48;;;;;;;;;;;25.00;13.80;;;;;;4968961;28;20436;-82
2022/03/28 10:01:14;;;;;;;;;;;25.10;14.60;;;;;;4991467;28;19910;-82
2022/03/28 10:03:40;;;;;;;;;;;25.40;14.40;;;;;;4990142;28;19917;-82
2022/03/28 10:06:06;;;;;;;;;;;25.70;14.40;;;;;;4987434;28;19976;-81
2022/03/28 10:08:33;;;;;;;;;;;25.50;14.50;;;;;;4969803;28;19905;-81
2022/03/28 10:10:59;;;;;;;;;;;25.20;14.70;;;;;;4972311;28;19986;-82
2022/03/28 10:13:25;;;;;;;;;;;25.40;15.20;;;;;;4987351;28;19974;-82
2022/03/28 10:15:51;;;;;;;;;;;25.60;15.00;;;;;;4987463;28;19910;-80
2022/03/28 10:18:17;;;;;;;;;;;25.60;14.40;;;;;;4969474;28;19997;-82
2022/03/28 10:20:44;;;;;;;;;;;25.40;15.20;;;;;;4987499;28;20008;-82
2022/03/28 10:23:11;;;;;;;;;;;25.40;15.90;;;;;;4969911;28;19909;-81
2022/03/28 10:25:38;;;;;;;;;;;25.70;16.00;;;;;;4986911;28;19906;-82
2022/03/28 10:28:04;;;;;;;;;;;26.10;16.10;;;;;;4987480;28;19906;-81
2022/03/28 10:30:30;;;;;;;;;;;26.00;16.50;;;;;;4969362;28;19909;-82
2022/03/28 10:33:19;;;;;;;;;;;25.40;16.80;;;;;;4969987;28;19924;-83
2022/03/28 10:36:05;;;;;;;;;;;24.60;17.80;;;;;;4987367;28;20008;-84
2022/03/28 10:38:30;;;;;;;;;;;23.70;18.40;;;;;;4969584;28;20395;-84
2022/03/28 10:40:56;;;;;;;;;;;22.90;18.80;;;;;;4970723;28;19945;-86
2022/03/28 10:43:24;;;;;;;;;;;22.40;19.10;;;;;;4970468;28;19909;-85
2022/03/28 10:45:52;;;;;;;;;;;21.90;20.00;;;;;;4987264;28;19910;-86
2022/03/28 10:48:32;;;;;;;;;;;21.60;21.10;;;;;;4987894;28;20565;-86
2022/03/28 10:51:02;;;;;;;;;;;21.50;21.30;;;;;;4987610;28;19921;-85
2022/03/28 10:53:29;;;;;;;;;;;21.20;21.60;;;;;;4987180;28;19936;-86
2022/03/28 10:55:59;;;;;;;;;;;21.00;22.00;;;;;;4987914;28;19958;-85
2022/03/28 10:58:29;;;;;;;;;;;21.00;22.30;;;;;;4987665;28;19912;-86
2022/03/28 11:01:13;;;;;;;;;;;20.90;22.30;;;;;;4987810;28;19955;-87
2022/03/28 11:03:38;;;;;;;;;;;20.70;22.60;;;;;;4987851;28;19910;-87
2022/03/28 11:06:04;;;;;;;;;;;20.60;22.80;;;;;;4970221;28;20124;-86
2022/03/28 11:08:38;;;;;;;;;;;20.50;23.10;;;;;;4987532;28;19910;-87
2022/03/28 11:11:15;;;;;;;;;;;20.40;23.50;;;;;;4972745;28;19916;-87
2022/03/28 11:13:41;;;;;;;;;;;20.30;23.30;;;;;;4991607;28;19906;-86
2022/03/28 11:16:17;;;;;;;;;;;20.10;23.40;;;;;;4974302;28;19913;-85
2022/03/28 11:18:42;;;;;;;;;;;19.90;23.60;;;;;;4991640;28;19913;-85
2022/03/28 11:21:10;;;;;;;;;;;19.80;23.90;;;;;;4974096;28;20306;-85
2022/03/28 11:23:39;;;;;;;;;;;19.80;24.60;;;;;;4991219;28;19910;-86
2022/03/28 11:26:05;;;;;;;;;;;19.90;24.50;;;;;;4974035;28;19906;-86
2022/03/28 11:28:32;;;;;;;;;;;19.90;24.50;;;;;;4973313;28;19905;-77
2022/03/28 11:31:00;;;;;;;;;;;19.80;24.60;;;;;;4990521;28;20009;-89
2022/03/28 11:33:30;;;;;;;;;;;19.70;24.10;;;;;;4973433;28;19909;-85
2022/03/28 11:35:57;;;;;;;;;;;19.70;24.80;;;;;;4990818;28;19937;-84
2022/03/28 11:38:27;;;;;;;;;;;19.70;25.00;;;;;;4990268;28;19909;-85
2022/03/28 11:40:53;;;;;;;;;;;19.80;25.30;;;;;;4973606;28;20017;-83
2022/03/28 11:43:32;;;;;;;;;;;19.90;25.80;;;;;;4990648;28;19925;-86
2022/03/28 11:45:58;;;;;;;;;;;19.90;26.60;;;;;;4991057;28;20474;-85
2022/03/28 11:48:23;;;;;;;;;;;19.80;26.90;;;;;;4973854;28;19925;-86
2022/03/28 11:50:49;;;;;;;;;;;19.90;27.00;;;;;;4973003;28;19922;-83
2022/03/28 11:53:15;;;;;;;;;;;19.90;27.10;;;;;;4973183;28;19960;-86
2022/03/28 11:55:52;;;;;;;;;;;19.90;26.70;;;;;;4991013;28;19960;-86
2022/03/28 11:58:26;;;;;;;;;;;19.90;27.30;;;;;;4973235;28;19912;-85
2022/03/28 12:00:51;;;;;;;;;;;20.10;27.60;;;;;;4973614;28;20160;-87
2022/03/28 12:03:17;;;;;;;;;;;20.10;27.00;;;;;;4990987;28;19996;-87
2022/03/28 12:05:42;;;;;;;;;;;20.00;26.80;;;;;;4972737;28;19921;-87
2022/03/28 12:08:09;;;;;;;;;;;20.00;27.30;;;;;;4990501;28;20736;-84
2022/03/28 12:10:36;;;;;;;;;;;20.00;27.90;;;;;;4991427;28;19910;-85
2022/03/28 12:13:03;;;;;;;;;;;20.20;28.20;;;;;;4990268;28;19991;-83
2022/03/28 12:15:30;;;;;;;;;;;20.20;28.30;;;;;;4989871;28;19916;-86
2022/03/28 12:17:58;;;;;;;;;;;20.30;28.60;;;;;;4990208;28;20001;-86
2022/03/28 12:20:25;;;;;;;;;;;20.30;28.40;;;;;;4989765;28;19905;-89
2022/03/28 12:22:51;;;;;;;;;;;20.40;28.60;;;;;;4989802;28;19925;-86
2022/03/28 12:25:24;;;;;;;;;;;20.40;28.60;;;;;;4972689;28;19909;-85
2022/03/28 12:27:50;;;;;;;;;;;20.50;28.90;;;;;;4990529;28;20371;-85
2022/03/28 12:30:16;;;;;;;;;;;20.40;29.00;;;;;;4990117;28;19910;-87
2022/03/28 12:32:43;;;;;;;;;;;20.30;29.10;;;;;;4989880;28;20386;-85
2022/03/28 12:35:09;;;;;;;;;;;20.40;29.40;;;;;;4990340;28;20263;-86
2022/03/28 12:37:36;;;;;;;;;;;20.40;29.60;;;;;;4972099;28;19964;-86
2022/03/28 12:40:02;;;;;;;;;;;20.50;29.60;;;;;;4972667;28;19909;-88
2022/03/28 12:42:27;;;;;;;;;;;20.30;29.70;;;;;;4971815;28;19992;-88
2022/03/28 12:44:54;;;;;;;;;;;20.40;29.90;;;;;;4989804;28;19910;-88
2022/03/28 12:47:20;;;;;;;;;;;20.40;29.80;;;;;;4989528;28;19906;-87
2022/03/28 12:49:45;;;;;;;;;;;20.40;29.80;;;;;;4988974;28;20290;-85
2022/03/28 12:52:14;;;;;;;;;;;20.50;30.00;;;;;;4971953;28;19917;-86
2022/03/28 12:54:42;;;;;;;;;;;20.60;29.90;;;;;;4971873;28;19906;-86
2022/03/28 12:57:08;;;;;;;;;;;20.50;29.70;;;;;;4989060;28;19913;-85
2022/03/28 12:59:34;;;;;;;;;;;20.50;29.70;;;;;;4971664;28;19905;-85
2022/03/28 13:02:07;;;;;;;;;;;20.50;30.00;;;;;;4988777;28;19920;-83
2022/03/28 13:04:41;;;;;;;;;;;20.40;30.00;;;;;;4971202;28;19925;-85
2022/03/28 13:07:07;;;;;;;;;;;20.50;30.10;;;;;;4988875;28;19906;-84
2022/03/28 13:09:32;;;;;;;;;;;20.50;29.80;;;;;;4988656;28;19937;-86
2022/03/28 13:12:08;;;;;;;;;;;20.50;30.00;;;;;;4970627;28;19913;-87
2022/03/28 13:14:33;;;;;;;;;;;20.40;30.10;;;;;;4971133;28;20630;-85
2022/03/28 13:17:05;;;;;;;;;;;20.40;30.20;;;;;;4971367;28;19910;-84
2022/03/28 13:19:31;;;;;;;;;;;20.40;30.20;;;;;;4988340;28;19905;-83
2022/03/28 13:21:57;;;;;;;;;;;20.50;30.00;;;;;;4987135;28;19910;-83
2022/03/28 13:24:26;;;;;;;;;;;20.40;30.30;;;;;;4970673;28;19910;-82
2022/03/28 13:28:01;;;;;;;;;;;20.40;30.60;;;;;;4970726;28;19914;-85
2022/03/28 13:29:39;;;;;;;;;;;20.40;30.60;;;;;;4987727;28;20051;-85
2022/03/28 13:32:04;;;;;;;;;;;20.40;30.50;;;;;;4969601;28;19922;-84
2022/03/28 13:34:30;;;;;;;;;;;20.40;30.90;;;;;;4987616;28;20008;-85
2022/03/28 13:36:56;;;;;;;;;;;20.40;30.30;;;;;;4970002;28;20433;-84
2022/03/28 13:39:21;;;;;;;;;;;20.50;30.10;;;;;;4987982;28;20367;-86
2022/03/28 13:41:47;;;;;;;;;;;20.50;30.00;;;;;;4970811;28;20527;-86
2022/03/28 13:44:13;;;;;;;;;;;20.40;30.20;;;;;;4970266;28;19916;-83
2022/03/28 13:46:38;;;;;;;;;;;20.40;30.30;;;;;;4970592;28;19906;-85
2022/03/28 13:49:04;;;;;;;;;;;20.40;30.20;;;;;;4970185;28;20078;-87
2022/03/28 13:51:30;;;;;;;;;;;20.40;30.00;;;;;;4986644;28;19929;-85
2022/03/28 13:53:56;;;;;;;;;;;20.40;30.50;;;;;;4970615;28;20294;-86
2022/03/28 13:56:23;;;;;;;;;;;20.40;30.20;;;;;;4987534;28;20312;-85
2022/03/28 13:58:48;;;;;;;;;;;20.40;30.20;;;;;;4970550;28;19909;-85
2022/03/28 14:01:14;;;;;;;;;;;20.40;29.90;;;;;;4970187;28;19905;-86
2022/03/28 14:03:40;;;;;;;;;;;20.40;30.20;;;;;;4988129;28;20306;-86
2022/03/28 14:06:07;;;;;;;;;;;20.30;30.00;;;;;;4987759;28;20036;-86
2022/03/28 14:08:36;;;;;;;;;;;20.30;29.80;;;;;;4987566;28;19910;-86
2022/03/28 14:11:06;;;;;;;;;;;20.30;30.00;;;;;;4988280;28;20044;-84
2022/03/28 14:13:32;;;;;;;;;;;20.30;30.00;;;;;;4988601;28;20286;-86
2022/03/28 14:15:57;;;;;;;;;;;20.20;30.00;;;;;;4971020;28;19910;-86
2022/03/28 14:18:25;;;;;;;;;;;20.30;29.90;;;;;;4970421;28;20302;-85
2022/03/28 14:20:51;;;;;;;;;;;20.20;29.80;;;;;;4987706;28;19917;-85
2022/03/28 14:23:16;;;;;;;;;;;20.20;29.90;;;;;;4988182;28;19910;-86
2022/03/28 14:25:43;;;;;;;;;;;20.20;30.10;;;;;;4988415;28;19942;-85
2022/03/28 14:28:09;;;;;;;;;;;20.20;30.10;;;;;;4987837;28;20294;-87
2022/03/28 14:30:34;;;;;;;;;;;20.20;30.50;;;;;;4987870;28;20362;-88
2022/03/28 14:33:00;;;;;;;;;;;20.20;30.60;;;;;;4987370;28;19921;-85
2022/03/28 14:35:29;;;;;;;;;;;20.10;30.70;;;;;;4970105;28;19953;-86
2022/03/28 14:37:55;;;;;;;;;;;20.10;30.90;;;;;;4987349;28;19992;-87
2022/03/28 14:40:21;;;;;;;;;;;20.20;30.40;;;;;;4987452;28;19905;-88
2022/03/28 14:42:47;;;;;;;;;;;20.20;30.60;;;;;;4987473;28;19920;-88
2022/03/28 14:45:17;;;;;;;;;;;20.10;30.70;;;;;;4990549;28;20018;-84
2022/03/28 14:47:43;;;;;;;;;;;20.00;31.00;;;;;;4973812;28;19909;-88
2022/03/28 14:50:08;;;;;;;;;;;20.00;30.70;;;;;;4991277;28;20263;-86
2022/03/28 14:52:36;;;;;;;;;;;20.00;30.70;;;;;;4973760;28;19921;-87
2022/03/28 14:57:38;;;;;;;15.60;7.07;;;20.00;30.20;;;;;;5104286;27;20840;-81
2022/03/28 15:00:07;;;;;;;12.13;6.03;;;19.90;30.70;;;;;;5104022;28;20031;-80
2022/03/28 15:02:33;;;;;;;12.18;7.43;;;19.90;30.70;;;;;;5102259;28;20031;-80
2022/03/28 15:04:59;;;;;;;9.45;5.07;;;19.80;31.00;;;;;;5102416;28;20024;-81
2022/03/28 15:07:25;;;;;;;14.73;6.30;;;19.80;30.90;;;;;;5104091;28;20039;-81
2022/03/28 15:09:52;;;;;;;12.90;4.68;;;19.80;31.10;;;;;;5103795;28;20484;-81
2022/03/28 15:12:19;;;;;;;11.77;4.80;;;19.80;31.10;;;;;;5102035;28;20027;-80
2022/03/28 15:14:45;;;;;;;8.32;4.75;;;19.80;31.10;;;;;;5102241;28;20024;-80
2022/03/28 15:17:11;;;;;;;8.18;5.00;;;19.70;30.90;;;;;;5102504;28;20412;-81
2022/03/28 15:19:37;;;;;;;12.48;4.45;;;19.70;31.10;;;;;;5104132;28;20024;-82
2022/03/28 15:22:05;;;;;;;17.58;3.78;;;19.60;31.30;;;;;;5104268;28;20036;-81
2022/03/28 15:24:31;;;;;;;14.40;5.40;;;19.60;31.50;;;;;;5103960;28;20047;-80
2022/03/28 15:26:57;;;;;;;13.13;5.00;;;19.60;31.50;;;;;;5104195;28;20032;-82
2022/03/28 15:29:23;;;;;;;21.02;4.75;;;19.50;31.70;;;;;;5104496;28;20076;-82
2022/03/28 15:31:49;;;;;;;17.80;4.80;;;19.50;31.80;;;;;;5104354;28;20047;-80
2022/03/28 15:34:16;;;;;;;9.38;4.05;;;19.40;31.90;;;;;;5101832;28;20024;-81
2022/03/28 15:36:47;;;;;;;8.30;3.95;;;19.40;32.00;;;;;;5102601;28;20040;-82
2022/03/28 15:39:16;;;;;;;8.57;4.28;;;19.30;31.90;;;;;;5102831;28;20024;-82
2022/03/28 15:41:42;;;;;;;12.40;4.18;;;19.30;31.70;;;;;;5104325;28;20035;-82
2022/03/28 15:44:10;;;;;;;8.40;4.43;;;19.30;31.80;;;;;;5102214;28;20024;-82
2022/03/28 15:46:37;;;;;;;6.70;4.13;;;19.30;32.00;;;;;;5102582;28;20035;-82
2022/03/28 15:49:03;;;;;;;29.08;17.52;;;19.20;32.30;;;;;;5102116;28;20489;-82
2022/03/28 15:51:29;;;;;;;32.67;17.42;;;19.20;32.30;;;;;;5102346;28;20101;-81
2022/03/28 15:53:55;;;;;;;21.13;13.32;;;19.20;32.40;;;;;;5103887;28;20036;-82
2022/03/28 15:56:22;;;;;;;15.00;5.57;;;19.10;32.70;;;;;;5102611;28;20549;-82
2022/03/28 15:58:48;;;;;;;16.00;4.32;;;19.00;32.80;;;;;;5102179;28;20023;-83
2022/03/28 16:03:59;;;;;;;10.15;4.13;;;19.00;33.10;;;;;;5103102;28;20123;-82
2022/03/28 16:06:26;;;;;;;8.10;3.47;;;18.80;33.00;;;;;;5101493;28;20110;-80
2022/03/28 16:08:52;;;;;;;8.23;4.07;;;18.80;33.40;;;;;;5089848;28;20028;-81
2022/03/28 16:11:17;;;;;;;12.95;4.55;;;18.80;33.70;;;;;;5089553;28;20115;-83
2022/03/28 16:13:44;;;;;;;8.95;3.42;;;18.70;33.80;;;;;;5090095;28;20022;-84
2022/03/28 16:16:09;;;;;;;7.18;3.55;;;18.70;34.00;;;;;;5088284;28;20429;-81
2022/03/28 16:18:36;;;;;;;10.18;4.10;;;18.60;34.00;;;;;;5087600;28;20601;-83
2022/03/28 16:21:02;;;;;;;13.20;4.13;;;18.60;34.20;;;;;;5087838;28;20034;-84
2022/03/28 16:23:29;;;;;;;12.25;4.18;;;18.50;34.40;;;;;;5089847;28;20024;-84
2022/03/28 16:25:56;;;;;;;8.00;4.40;;;18.40;34.50;;;;;;5088029;28;20055;-84
2022/03/28 16:28:22;;;;;;;7.93;4.40;;;18.40;34.60;;;;;;5087833;28;20030;-85
2022/03/28 16:30:48;;;;;;;10.43;3.72;;;18.30;34.80;;;;;;5089460;28;20020;-84
2022/03/28 16:33:14;;;;;;;15.30;3.58;;;18.20;35.10;;;;;;5087536;28;20054;-81
2022/03/28 16:35:43;;;;;;;15.18;4.75;;;18.10;35.30;;;;;;5087385;28;20639;-81
2022/03/28 16:38:10;;;;;;;10.82;3.88;;;18.00;35.40;;;;;;5088572;28;20023;-83
2022/03/28 16:40:37;;;;;;;13.52;5.30;;;17.90;35.60;;;;;;5088553;28;20409;-83
2022/03/28 16:43:03;;;;;;;9.52;4.20;;;17.80;35.80;;;;;;5088408;28;20020;-82
2022/03/28 16:45:29;;;;;;;16.60;4.40;;;17.70;36.10;;;;;;5087303;28;20034;-83
2022/03/28 16:47:54;;;;;;;7.43;3.42;;;17.60;36.30;;;;;;5088819;28;20499;-81
2022/03/28 16:50:20;;;;;;;10.43;4.40;;;17.50;36.50;;;;;;5088143;28;20032;-82
2022/03/28 16:52:46;;;;;;;11.10;4.30;;;17.40;36.70;;;;;;5087442;28;20119;-84